Bridgeport, California
Current Conditions -  °F | °C
As of 10:52 AM on Monday 22 Dec 2014 (Local Time) from KBAN Reporting Station
Clear Clear  
Wind Chill: 48°   Ceiling: Unl
Heat Index: 48°   Visibility: NA
Dew Point: 26°   Wind: 0mph
Humidity: 42%   Direction: NA
Pressure: 30.32"   Gusts: NA
Location:  38.26°N, 119.23°W
Report Text: KBAN 221852Z AUTO 00000KT CLR 09/M03 A3032 RMK AO2 SLP254 T00891033 $
Loading
Personal Weather Stations






























Interactive Weather Map New forecast layout! Learn more

10-Day Weather Forecast

Advertisements
Track Severe Weather on mobile